createdAt,value
2017-08-08T00:01:11.424Z,5.40
2017-08-08T00:03:39.637Z,5.60
2017-08-08T00:06:07.048Z,5.40
2017-08-08T00:08:35.240Z,6.13
2017-08-08T00:11:02.673Z,6.03
2017-08-08T00:13:30.412Z,6.40
2017-08-08T00:15:57.823Z,5.83
2017-08-08T00:18:25.301Z,6.00
2017-08-08T00:20:52.726Z,6.00
2017-08-08T00:23:20.149Z,6.53
2017-08-08T00:25:47.569Z,5.77
2017-08-08T00:28:15.078Z,5.60
2017-08-08T00:30:42.525Z,5.60
2017-08-08T00:33:09.970Z,6.20
2017-08-08T00:35:37.398Z,5.70
2017-08-08T00:38:04.865Z,5.40
2017-08-08T00:40:32.299Z,6.30
2017-08-08T00:42:59.721Z,6.37
2017-08-08T00:45:27.928Z,5.90
2017-08-08T00:47:55.368Z,5.90
2017-08-08T00:50:22.796Z,5.93
2017-08-08T00:52:51.021Z,6.03
2017-08-08T00:55:18.520Z,6.10
2017-08-08T00:57:46.002Z,6.60
2017-08-08T01:00:13.427Z,6.17
2017-08-08T01:02:40.884Z,6.70
2017-08-08T01:05:08.309Z,6.40
2017-08-08T01:07:35.739Z,5.80
2017-08-08T01:10:03.172Z,6.53
2017-08-08T01:12:30.682Z,6.00
2017-08-08T01:14:58.117Z,6.00
2017-08-08T01:17:25.549Z,5.90
2017-08-08T01:19:53.726Z,5.70
2017-08-08T01:22:21.177Z,5.97
2017-08-08T01:24:48.865Z,6.77
2017-08-08T01:27:16.304Z,6.80
2017-08-08T01:29:43.741Z,6.40
2017-08-08T01:32:11.164Z,5.80
2017-08-08T01:34:39.425Z,5.70
2017-08-08T01:37:06.946Z,6.70
2017-08-08T01:39:34.374Z,6.80
2017-08-08T01:42:02.570Z,6.17
2017-08-08T01:44:29.999Z,6.27
2017-08-08T01:46:58.192Z,6.97
2017-08-08T01:49:25.616Z,6.13
2017-08-08T01:51:53.809Z,6.33
2017-08-08T01:54:21.231Z,6.00
2017-08-08T01:56:48.682Z,5.93
2017-08-08T01:59:16.101Z,6.50
2017-08-08T02:01:43.593Z,6.53
2017-08-08T02:04:10.989Z,6.43
2017-08-08T02:06:38.412Z,5.97
2017-08-08T02:09:06.731Z,6.90
2017-08-08T02:11:34.156Z,6.50
2017-08-08T02:14:02.351Z,7.07
2017-08-08T02:16:29.777Z,5.93
2017-08-08T02:18:58.034Z,6.40
2017-08-08T02:21:25.552Z,6.80
2017-08-08T02:23:52.997Z,6.50
2017-08-08T02:26:20.419Z,6.40
2017-08-08T02:28:47.853Z,6.27
2017-08-08T02:31:15.278Z,6.60
2017-08-08T02:33:42.770Z,6.73
2017-08-08T02:36:10.186Z,6.30
2017-08-08T02:38:37.661Z,6.13
2017-08-08T02:41:05.091Z,6.13
2017-08-08T02:43:32.521Z,6.40
2017-08-08T02:46:00.757Z,6.30
2017-08-08T02:48:28.247Z,6.73
2017-08-08T02:50:55.688Z,6.33
2017-08-08T02:53:23.125Z,6.20
2017-08-08T02:55:50.611Z,6.10
2017-08-08T02:58:18.037Z,6.20
2017-08-08T03:00:45.504Z,6.00
2017-08-08T03:03:12.941Z,5.70
2017-08-08T03:05:41.138Z,6.37
2017-08-08T03:08:08.687Z,5.93
2017-08-08T03:10:36.864Z,5.93
2017-08-08T03:13:04.287Z,6.37
2017-08-08T03:15:31.740Z,5.83
2017-08-08T03:17:59.173Z,6.70
2017-08-08T03:20:26.602Z,5.97
2017-08-08T03:22:54.038Z,6.23
2017-08-08T03:25:21.529Z,6.57
2017-08-08T03:27:49.069Z,6.13
2017-08-08T03:30:16.543Z,5.90
2017-08-08T03:32:43.998Z,6.67
2017-08-08T03:35:11.410Z,6.97
2017-08-08T03:37:39.644Z,6.80
2017-08-08T03:40:07.087Z,6.30
2017-08-08T03:42:34.512Z,6.27
2017-08-08T03:45:01.944Z,6.90
2017-08-08T03:47:30.134Z,6.40
2017-08-08T03:49:57.565Z,7.13
2017-08-08T03:52:24.985Z,7.00
2017-08-08T03:54:52.413Z,6.30
2017-08-08T03:57:19.853Z,7.20
2017-08-08T03:59:47.264Z,7.07
2017-08-08T04:02:14.688Z,6.77
2017-08-08T04:04:42.114Z,7.80
2017-08-08T04:07:09.569Z,6.70
2017-08-08T04:09:36.994Z,6.77
2017-08-08T04:12:05.192Z,6.60
2017-08-08T04:14:32.627Z,7.23
2017-08-08T04:17:00.847Z,6.37
2017-08-08T04:19:28.277Z,7.33
2017-08-08T04:21:55.717Z,7.07
2017-08-08T04:24:23.140Z,8.40
2017-08-08T04:26:50.578Z,6.70
2017-08-08T04:29:18.023Z,7.20
2017-08-08T04:31:45.489Z,6.67
2017-08-08T04:34:13.194Z,7.00
2017-08-08T04:36:40.627Z,7.53
2017-08-08T04:39:08.060Z,6.40
2017-08-08T04:41:35.498Z,7.10
2017-08-08T04:44:03.005Z,8.33
2017-08-08T04:46:30.475Z,7.40
2017-08-08T04:48:57.897Z,6.87
2017-08-08T04:51:25.317Z,7.10
2017-08-08T04:53:52.773Z,6.63
2017-08-08T04:56:20.204Z,7.30
2017-08-08T04:58:48.477Z,6.33
2017-08-08T05:01:16.682Z,6.40
2017-08-08T05:03:44.164Z,7.00
2017-08-08T05:06:11.616Z,7.40
2017-08-08T05:08:39.049Z,6.60
2017-08-08T05:11:06.522Z,6.60
2017-08-08T05:13:33.985Z,7.97
2017-08-08T05:16:01.415Z,7.73
2017-08-08T05:18:28.842Z,7.43
2017-08-08T05:20:57.046Z,7.87
2017-08-08T05:23:24.472Z,7.10
2017-08-08T05:25:52.700Z,6.90
2017-08-08T05:28:20.143Z,7.27
2017-08-08T05:30:47.568Z,7.30
2017-08-08T05:33:15.788Z,6.73
2017-08-08T05:35:43.234Z,7.00
2017-08-08T05:38:10.658Z,7.60
2017-08-08T05:40:38.849Z,7.20
2017-08-08T05:43:06.312Z,6.93
2017-08-08T05:45:33.740Z,7.50
2017-08-08T05:48:01.997Z,7.30
2017-08-08T05:50:29.472Z,7.80
2017-08-08T05:52:56.899Z,6.90
2017-08-08T05:55:24.459Z,7.33
2017-08-08T05:57:51.885Z,7.57
2017-08-08T06:00:19.328Z,6.77
2017-08-08T06:02:46.758Z,6.83
2017-08-08T06:05:14.181Z,7.23
2017-08-08T06:07:41.609Z,7.90
2017-08-08T06:10:09.041Z,7.73
2017-08-08T06:12:36.468Z,7.50
2017-08-08T06:15:04.677Z,7.50
2017-08-08T06:17:32.133Z,7.20
2017-08-08T06:19:59.587Z,7.03
2017-08-08T06:22:27.052Z,8.57
2017-08-08T06:24:54.640Z,7.97
2017-08-08T06:27:22.085Z,7.43
2017-08-08T06:29:49.542Z,6.93
2017-08-08T06:32:16.990Z,6.60
2017-08-08T06:34:44.443Z,6.80
2017-08-08T06:37:11.943Z,8.30
2017-08-08T06:39:39.381Z,8.20
2017-08-08T06:42:06.865Z,6.83
2017-08-08T06:44:34.297Z,6.90
2017-08-08T06:47:02.048Z,6.80
2017-08-08T06:49:29.489Z,6.77
2017-08-08T06:51:57.850Z,8.40
2017-08-08T06:54:26.092Z,7.17
2017-08-08T06:56:53.521Z,6.80
2017-08-08T06:59:20.967Z,7.00
2017-08-08T07:01:48.418Z,7.37
2017-08-08T07:04:15.874Z,6.33
2017-08-08T07:06:43.314Z,6.60
2017-08-08T07:09:11.514Z,6.40
2017-08-08T07:11:38.972Z,6.40
2017-08-08T07:14:06.530Z,6.27
2017-08-08T07:16:33.969Z,6.77
2017-08-08T07:19:01.421Z,6.70
2017-08-08T07:21:29.619Z,6.13
2017-08-08T07:23:57.051Z,6.37
2017-08-08T07:26:24.475Z,6.67
2017-08-08T07:28:52.763Z,6.00
2017-08-08T07:31:20.168Z,5.80
2017-08-08T07:33:47.661Z,7.07
2017-08-08T07:36:15.079Z,6.70
2017-08-08T07:38:42.537Z,7.00
2017-08-08T07:41:09.982Z,7.47
2017-08-08T07:43:37.442Z,8.00
2017-08-08T07:46:04.890Z,7.50
2017-08-08T07:48:32.308Z,7.70
2017-08-08T07:51:00.521Z,7.50
2017-08-08T07:53:28.013Z,7.77
2017-08-08T07:55:55.476Z,6.83
2017-08-08T07:58:22.900Z,7.37
2017-08-08T08:00:50.349Z,6.83
2017-08-08T08:03:17.835Z,7.40
2017-08-08T08:05:45.307Z,6.93
2017-08-08T08:08:12.741Z,7.13
2017-08-08T08:10:40.166Z,7.00
2017-08-08T08:13:07.598Z,7.03
2017-08-08T08:15:35.820Z,6.90
2017-08-08T08:18:03.262Z,7.40
2017-08-08T08:20:30.725Z,7.03
2017-08-08T08:22:58.169Z,6.77
2017-08-08T08:25:25.599Z,6.40
2017-08-08T08:27:53.813Z,7.10
2017-08-08T08:30:21.269Z,6.57
2017-08-08T08:32:48.705Z,6.70
2017-08-08T08:35:16.200Z,6.90
2017-08-08T08:37:43.630Z,6.97
2017-08-08T08:40:11.086Z,7.03
2017-08-08T08:42:38.562Z,7.30
2017-08-08T08:45:06.002Z,7.30
2017-08-08T08:47:33.470Z,7.17
2017-08-08T08:50:00.937Z,7.03
2017-08-08T08:52:28.434Z,6.27
2017-08-08T08:54:55.845Z,6.57
2017-08-08T08:57:23.285Z,5.73
2017-08-08T08:59:50.732Z,7.13
2017-08-08T09:02:18.164Z,5.93
2017-08-08T09:04:46.629Z,5.90
2017-08-08T09:07:14.053Z,6.20
2017-08-08T09:09:41.552Z,9.50
2017-08-08T09:12:09.769Z,6.27
2017-08-08T09:14:37.209Z,6.10
2017-08-08T09:17:04.643Z,6.63
2017-08-08T09:19:32.840Z,6.33
2017-08-08T09:22:00.332Z,6.07
2017-08-08T09:24:27.761Z,7.30
2017-08-08T09:26:55.366Z,6.93
2017-08-08T09:29:22.789Z,6.60
2017-08-08T09:31:50.245Z,6.93
2017-08-08T09:34:17.679Z,6.57
2017-08-08T09:36:45.117Z,6.57
2017-08-08T09:39:13.332Z,7.80
2017-08-08T09:41:40.779Z,8.43
2017-08-08T09:44:08.226Z,7.27
2017-08-08T09:46:35.671Z,6.83
2017-08-08T09:49:03.253Z,6.23
2017-08-08T09:51:30.674Z,6.20
2017-08-08T09:53:58.105Z,6.70
2017-08-08T09:56:25.632Z,5.47
2017-08-08T09:58:53.096Z,5.97
2017-08-08T10:01:20.540Z,5.90
2017-08-08T10:03:47.963Z,6.20
2017-08-08T10:06:15.384Z,6.10
2017-08-08T10:08:42.842Z,5.93
2017-08-08T10:11:10.250Z,5.80
2017-08-08T10:13:37.666Z,6.33
2017-08-08T10:16:05.856Z,5.63
2017-08-08T10:18:33.272Z,5.60
2017-08-08T10:21:00.713Z,5.77
2017-08-08T10:23:28.165Z,5.83
2017-08-08T10:25:55.589Z,6.90
2017-08-08T10:28:23.036Z,6.13
2017-08-08T10:30:50.564Z,6.00
2017-08-08T10:33:18.023Z,6.00
2017-08-08T10:35:45.447Z,6.37
2017-08-08T10:38:12.874Z,6.00
2017-08-08T10:40:40.303Z,6.17
2017-08-08T10:43:08.515Z,6.30
2017-08-08T10:45:36.024Z,7.37
2017-08-08T10:48:03.498Z,6.67
2017-08-08T10:50:30.937Z,7.20
2017-08-08T10:52:58.387Z,6.87
2017-08-08T10:55:25.801Z,6.50
2017-08-08T10:57:53.272Z,6.37
2017-08-08T11:00:20.709Z,7.70
2017-08-08T11:02:48.288Z,6.80
2017-08-08T11:05:15.732Z,7.10
2017-08-08T11:07:43.238Z,6.90
2017-08-08T11:10:10.657Z,6.70
2017-08-08T11:12:38.173Z,6.57
2017-08-08T11:15:06.405Z,6.77
2017-08-08T11:17:33.838Z,6.83
2017-08-08T11:20:01.290Z,7.30
2017-08-08T11:22:28.729Z,7.37
2017-08-08T11:24:56.266Z,7.57
2017-08-08T11:27:24.479Z,7.20
2017-08-08T11:29:51.906Z,6.83
2017-08-08T11:32:19.324Z,6.50
2017-08-08T11:34:46.768Z,7.47
2017-08-08T11:37:14.204Z,7.27
2017-08-08T11:39:41.642Z,6.80
2017-08-08T11:42:09.096Z,6.90
2017-08-08T11:44:36.544Z,6.40
2017-08-08T11:47:03.968Z,6.23
2017-08-08T11:49:32.159Z,6.80
2017-08-08T11:51:59.586Z,7.07
2017-08-08T11:54:27.039Z,6.80
2017-08-08T11:56:54.508Z,7.97
2017-08-08T11:59:21.945Z,6.73
2017-08-08T12:01:49.366Z,6.43
2017-08-08T12:04:16.816Z,6.20
2017-08-08T12:06:44.248Z,6.97
2017-08-08T12:09:11.730Z,6.97
2017-08-08T12:11:39.324Z,7.20
2017-08-08T12:14:06.757Z,6.20
2017-08-08T12:16:34.160Z,7.47
2017-08-08T12:19:01.650Z,7.30
2017-08-08T12:21:29.068Z,6.53
2017-08-08T12:23:56.512Z,6.50
2017-08-08T12:26:24.011Z,6.67
2017-08-08T12:28:52.212Z,6.67
2017-08-08T12:31:19.641Z,7.17
2017-08-08T12:33:47.975Z,7.00
2017-08-08T12:36:15.435Z,6.90
2017-08-08T12:38:42.914Z,6.30
2017-08-08T12:41:10.348Z,7.33
2017-08-08T12:43:37.772Z,7.43
2017-08-08T12:46:05.251Z,7.03
2017-08-08T12:48:32.695Z,6.77
2017-08-08T12:51:00.112Z,6.67
2017-08-08T12:53:27.536Z,7.63
2017-08-08T12:55:54.989Z,6.53
2017-08-08T12:58:22.445Z,6.53
2017-08-08T13:00:49.886Z,5.90
2017-08-08T13:03:17.315Z,7.20
2017-08-08T13:05:44.741Z,6.30
2017-08-08T13:08:12.262Z,6.90
2017-08-08T13:10:39.686Z,7.10
2017-08-08T13:13:07.125Z,6.80
2017-08-08T13:15:35.384Z,6.83
2017-08-08T13:18:02.822Z,7.97
2017-08-08T13:20:30.252Z,6.93
2017-08-08T13:22:57.673Z,7.90
2017-08-08T13:25:25.898Z,7.03
2017-08-08T13:27:53.334Z,6.87
2017-08-08T13:30:20.741Z,7.30
2017-08-08T13:32:48.955Z,9.43
2017-08-08T13:35:16.374Z,8.30
2017-08-08T13:37:44.564Z,6.97
2017-08-08T13:40:12.004Z,7.00
2017-08-08T13:42:39.408Z,6.33
2017-08-08T13:45:07.037Z,6.70
2017-08-08T13:47:35.204Z,7.23
2017-08-08T13:50:02.649Z,7.10
2017-08-08T13:52:30.857Z,7.70
2017-08-08T13:54:58.305Z,7.10
2017-08-08T13:57:25.748Z,7.10
2017-08-08T13:59:53.213Z,6.83
2017-08-08T14:02:20.633Z,7.33
2017-08-08T14:04:48.065Z,6.60
2017-08-08T14:07:15.490Z,6.67
2017-08-08T14:09:42.975Z,6.70
2017-08-08T14:12:10.404Z,6.20
2017-08-08T14:14:37.826Z,6.90
2017-08-08T14:17:05.999Z,5.90
2017-08-08T14:19:34.203Z,7.73
2017-08-08T14:22:01.817Z,6.13
2017-08-08T14:24:29.351Z,6.83
2017-08-08T14:26:56.840Z,6.20
2017-08-08T14:29:25.062Z,7.43
2017-08-08T14:31:52.468Z,6.47
2017-08-08T14:34:19.897Z,6.57
2017-08-08T14:36:47.350Z,6.50
2017-08-08T14:39:14.884Z,12.13
2017-08-08T14:41:42.453Z,7.23
2017-08-08T14:44:09.868Z,7.73
2017-08-08T14:46:38.060Z,6.90
2017-08-08T14:49:05.569Z,6.70
2017-08-08T14:51:33.038Z,7.83
2017-08-08T14:54:00.576Z,8.77
2017-08-08T14:56:28.001Z,7.80
2017-08-08T14:58:55.438Z,6.67
2017-08-08T15:01:22.873Z,8.13
2017-08-08T15:03:51.224Z,6.97
2017-08-08T15:06:18.675Z,8.00
2017-08-08T15:08:46.113Z,7.50
2017-08-08T15:11:13.540Z,8.40
2017-08-08T15:16:16.548Z,9.57
2017-08-08T15:18:43.993Z,7.83
2017-08-08T15:21:12.201Z,7.70
2017-08-08T15:23:39.697Z,8.87
2017-08-08T15:26:07.131Z,8.80
2017-08-08T15:28:34.560Z,8.80
2017-08-08T15:31:01.987Z,8.30
2017-08-08T15:33:30.409Z,7.03
2017-08-08T15:35:57.921Z,8.70
2017-08-08T15:38:25.401Z,7.40
2017-08-08T15:40:52.859Z,7.93
2017-08-08T15:43:20.297Z,7.93
2017-08-08T15:45:47.715Z,6.90
2017-08-08T15:48:15.192Z,6.90
2017-08-08T15:50:43.417Z,8.73
2017-08-08T15:53:10.824Z,6.73
2017-08-08T15:55:38.253Z,6.90
2017-08-08T15:58:05.664Z,6.33
2017-08-08T16:00:33.102Z,6.67
2017-08-08T16:03:01.306Z,7.20
2017-08-08T16:05:28.749Z,7.40
2017-08-08T16:07:56.184Z,7.40
2017-08-08T16:10:24.379Z,7.80
2017-08-08T16:12:53.392Z,7.97
2017-08-08T16:15:20.820Z,8.40
2017-08-08T16:17:48.232Z,8.30
2017-08-08T16:20:15.748Z,7.70
2017-08-08T16:22:43.160Z,7.57
2017-08-08T16:25:11.496Z,8.47
2017-08-08T16:27:38.907Z,8.20
2017-08-08T16:30:07.100Z,8.10
2017-08-08T16:32:34.643Z,8.90
2017-08-08T16:35:02.074Z,9.47
2017-08-08T16:37:29.496Z,9.57
2017-08-08T16:39:56.989Z,10.20
2017-08-08T16:42:24.412Z,10.63
2017-08-08T16:44:52.625Z,9.93
2017-08-08T16:47:20.065Z,12.57
2017-08-08T16:49:47.552Z,11.57
2017-08-08T16:52:15.004Z,10.77
2017-08-08T16:54:42.497Z,11.80
2017-08-08T16:57:09.926Z,11.53
2017-08-08T16:59:37.353Z,12.37
2017-08-08T17:02:04.913Z,10.20
2017-08-08T17:04:32.424Z,11.40
2017-08-08T17:06:59.874Z,10.27
2017-08-08T17:09:27.297Z,10.63
2017-08-08T17:11:54.789Z,12.03
2017-08-08T17:14:22.260Z,11.50
2017-08-08T17:16:49.773Z,11.93
2017-08-08T17:19:17.210Z,13.30
2017-08-08T17:21:44.648Z,11.77
2017-08-08T17:24:12.845Z,10.93
2017-08-08T17:26:40.279Z,11.60
2017-08-08T17:29:08.477Z,11.30
2017-08-08T17:31:35.932Z,12.27
2017-08-08T17:34:03.383Z,10.87
2017-08-08T17:36:30.911Z,10.90
2017-08-08T17:38:58.373Z,11.50
2017-08-08T17:41:25.883Z,11.17
2017-08-08T17:43:53.320Z,10.93
2017-08-08T17:46:20.764Z,10.10
2017-08-08T17:48:48.190Z,11.00
2017-08-08T17:51:16.455Z,9.93
2017-08-08T17:53:43.900Z,8.90
2017-08-08T17:56:11.332Z,9.67
2017-08-08T17:58:38.787Z,9.97
2017-08-08T18:01:06.235Z,9.23
2017-08-08T18:03:33.652Z,9.80
2017-08-08T18:06:01.907Z,7.60
2017-08-08T18:08:29.320Z,8.60
2017-08-08T18:10:56.758Z,8.70
2017-08-08T18:13:24.990Z,8.27
2017-08-08T18:15:52.464Z,8.23
2017-08-08T18:18:20.692Z,8.10
2017-08-08T18:20:48.186Z,8.57
2017-08-08T18:23:15.601Z,8.20
2017-08-08T18:25:43.066Z,8.10
2017-08-08T18:28:10.512Z,7.90
2017-08-08T18:30:37.941Z,9.13
2017-08-08T18:33:05.377Z,8.43
2017-08-08T18:35:33.595Z,8.43
2017-08-08T18:38:01.017Z,8.13
2017-08-08T18:40:28.469Z,7.77
2017-08-08T18:42:55.890Z,8.10
2017-08-08T18:45:25.888Z,8.17
2017-08-08T18:47:53.284Z,9.30
2017-08-08T18:50:20.724Z,7.33
2017-08-08T18:52:48.186Z,8.10
2017-08-08T18:55:15.649Z,8.13
2017-08-08T18:57:43.083Z,7.33
2017-08-08T19:00:10.540Z,8.10
2017-08-08T19:02:37.966Z,7.63
2017-08-08T19:05:05.526Z,8.60
2017-08-08T19:07:33.734Z,7.90
2017-08-08T19:10:01.257Z,9.80
2017-08-08T19:12:28.673Z,9.07
2017-08-08T19:14:56.096Z,9.20
2017-08-08T19:17:23.524Z,8.67
2017-08-08T19:19:50.951Z,9.67
2017-08-08T19:22:18.371Z,10.07
2017-08-08T19:24:45.799Z,10.57
2017-08-08T19:27:13.227Z,9.83
2017-08-08T19:29:40.662Z,11.03
2017-08-08T19:32:08.127Z,10.00
2017-08-08T19:34:35.551Z,10.00
2017-08-08T19:37:02.980Z,10.13
2017-08-08T19:39:30.416Z,11.30
2017-08-08T19:41:57.836Z,12.10
2017-08-08T19:44:25.282Z,13.00
2017-08-08T19:46:52.729Z,12.17
2017-08-08T19:49:20.155Z,13.10
2017-08-08T19:51:47.586Z,13.10
2017-08-08T19:54:15.028Z,12.80
2017-08-08T19:56:42.473Z,12.30
2017-08-08T19:59:09.893Z,13.77
2017-08-08T20:01:37.331Z,12.37
2017-08-08T20:04:04.752Z,12.70
2017-08-08T20:06:32.177Z,13.00
2017-08-08T20:08:59.656Z,13.83
2017-08-08T20:11:27.144Z,14.10
2017-08-08T20:13:54.651Z,14.67
2017-08-08T20:16:22.098Z,14.20
2017-08-08T20:18:49.534Z,14.73
2017-08-08T20:21:16.969Z,12.97
2017-08-08T20:23:45.163Z,13.80
2017-08-08T20:26:12.606Z,13.57
2017-08-08T20:28:40.821Z,12.40
2017-08-08T20:31:08.274Z,11.87
2017-08-08T20:33:35.721Z,11.33
2017-08-08T20:36:03.163Z,9.97
2017-08-08T20:38:30.593Z,9.57
2017-08-08T20:40:58.020Z,9.10
2017-08-08T20:43:25.456Z,9.33
2017-08-08T20:45:52.892Z,9.17
2017-08-08T20:48:20.328Z,8.17
2017-08-08T20:50:47.749Z,9.10
2017-08-08T20:53:15.193Z,7.97
2017-08-08T20:55:42.636Z,7.83
2017-08-08T20:58:10.100Z,7.87
2017-08-08T21:00:38.298Z,8.53
2017-08-08T21:03:05.706Z,7.83
2017-08-08T21:05:33.158Z,7.63
2017-08-08T21:08:00.562Z,7.43
2017-08-08T21:10:27.996Z,7.93
2017-08-08T21:12:55.449Z,7.50
2017-08-08T21:15:22.899Z,7.23
2017-08-08T21:17:50.336Z,7.07
2017-08-08T21:20:17.768Z,7.27
2017-08-08T21:22:45.202Z,6.77
2017-08-08T21:25:12.658Z,6.87
2017-08-08T21:27:40.080Z,7.00
2017-08-08T21:30:07.528Z,6.67
2017-08-08T21:32:34.978Z,5.83
2017-08-08T21:35:02.409Z,6.87
2017-08-08T21:37:29.860Z,7.20
2017-08-08T21:39:57.302Z,6.50
2017-08-08T21:42:25.521Z,6.03
2017-08-08T21:44:52.930Z,5.80
2017-08-08T21:47:21.129Z,6.00
2017-08-08T21:49:48.561Z,5.87
2017-08-08T21:52:16.900Z,5.43
2017-08-08T21:54:44.484Z,6.27
2017-08-08T21:57:12.004Z,5.83
2017-08-08T21:59:39.501Z,5.63
2017-08-08T22:02:07.065Z,6.40
2017-08-08T22:04:34.505Z,5.57
2017-08-08T22:07:01.980Z,6.00
2017-08-08T22:09:29.723Z,6.73
2017-08-08T22:11:57.164Z,6.70
2017-08-08T22:14:24.611Z,6.40
2017-08-08T22:16:52.036Z,7.10
2017-08-08T22:19:19.600Z,8.00
2017-08-08T22:21:47.058Z,8.70
2017-08-08T22:24:14.589Z,8.27
2017-08-08T22:26:42.115Z,8.60
2017-08-08T22:29:10.309Z,9.10
2017-08-08T22:31:38.608Z,9.70
2017-08-08T22:34:06.017Z,8.90
2017-08-08T22:36:34.208Z,8.90
2017-08-08T22:39:01.645Z,9.23
2017-08-08T22:41:29.193Z,9.80
2017-08-08T22:43:56.595Z,9.60
2017-08-08T22:46:24.037Z,9.37
2017-08-08T22:48:51.468Z,9.20
2017-08-08T22:51:18.910Z,9.83
2017-08-08T22:53:46.410Z,10.50
2017-08-08T22:56:13.857Z,12.17
2017-08-08T22:58:41.309Z,10.27
2017-08-08T23:01:08.771Z,10.53
2017-08-08T23:03:36.225Z,10.10
2017-08-08T23:06:03.728Z,10.50
2017-08-08T23:08:31.220Z,11.63
2017-08-08T23:10:58.651Z,10.87
2017-08-08T23:13:26.088Z,11.27
2017-08-08T23:15:53.532Z,10.63
2017-08-08T23:18:20.961Z,10.77
2017-08-08T23:20:48.469Z,10.07
2017-08-08T23:23:15.897Z,10.10
2017-08-08T23:25:43.323Z,9.73
2017-08-08T23:28:10.783Z,10.33
2017-08-08T23:30:38.232Z,10.50
2017-08-08T23:33:05.695Z,9.87
2017-08-08T23:35:33.856Z,9.80
2017-08-08T23:38:02.080Z,10.83
2017-08-08T23:40:29.513Z,9.83
2017-08-08T23:42:56.939Z,10.17
2017-08-08T23:45:25.137Z,10.50
2017-08-08T23:47:52.572Z,10.23
2017-08-08T23:50:20.781Z,10.20
2017-08-08T23:52:48.204Z,10.27
2017-08-08T23:55:15.659Z,10.43
2017-08-08T23:57:43.846Z,9.97
